Sunset, LA (70584)

4:15 PM CDT on July 25, 2016 (GMT -0500)
SWLAWX | | Change Station

Elev 43 ft 30.36 °N, 92.12 °W | Updated 13 seconds ago

Scattered Clouds
Scattered Clouds
96.1 °F
Feels Like 112 °F
N
2.7
Wind Variable Wind from SSW

Today
High -- | Low -- °F
--% Chance of Precip.
Yesterday
High -- | Low -- °F
Precip. -- in
Pressure 29.88 in
Visibility 10.0 miles
Clouds Scattered Clouds 4000 ft
Heat Index 112 °F
Dew Point 77 °F
Humidity 55%
Rainfall 0.96 in
Snow Depth Not available.
6:22 AM 8:06 PM
Waning Gibbous, 62% visible
METAR KOPL 252055Z AUTO 13007G15KT 10SM SCT040 33/24 A2988 RMK AO2 LTG DSNT SE THRU W T03280240 PWINO
Pressure 29.88 in
Visibility 10.0 miles
Clouds Scattered Clouds 4000 ft
Heat Index 112 °F
Dew Point 77 °F
Humidity 55%
Rainfall 0.96 in
Snow Depth Not available.
6:22 AM 8:06 PM
Waning Gibbous, 62% visible
METAR KOPL 252055Z AUTO 13007G15KT 10SM SCT040 33/24 A2988 RMK AO2 LTG DSNT SE THRU W T03280240 PWINO
Record highs are possible for parts of the Northeast Monday and Tuesday, as parts of the central U.S. take a little breather from the worst of summer's dog day heat.

Expansive high pressure in the upper atmosphere will focus on parts of the East and West this week, sending heat indices well into the triple digits from the Mid-Atlantic states into the South.

10-Day Weather Forecast

Almanac

Astronomy

Jul. 25, 2016 Rise Set
Actual Time
Civil Twilight
Nautical Twilight
Astronomical Twilight
Moon
Length of Visible Light
Length of Day
Tomorrow will be .
, % of the Moon is Illuminated

Today's Extremes

State Highs State Lows

Community

WunderPhotos

Upload Photos

1,927,423 photos uploaded!

WunderBlog® & News

Nearby

Air Quality

  Air Quality AQ Index Pollutant
Not available.

Snow Depth

Station Depth Elevation

Earthquake Activity

City Distance Mag. Time & Date
Minimum magnitude displayed is 2.5.

Coastal Water Temperatures

Place Temperature

Stations

Nearby Weather Stations

Station Location Temp. Windchill Dew Point Humidity Wind Precip. Elev Updated Type
                   

Watches & Warnings

There are currently no watches in effect.